createdAt,value
2022-09-07T00:01:07.433Z,40.63
2022-09-07T00:03:35.350Z,38.53
2022-09-07T00:06:08.798Z,43.08
2022-09-07T00:08:36.252Z,41.53
2022-09-07T00:11:08.428Z,43.13
2022-09-07T00:13:40.033Z,44.42
2022-09-07T00:16:25.540Z,41.53
2022-09-07T00:18:59.444Z,45.45
2022-09-07T00:21:28.115Z,43.80
2022-09-07T00:23:56.587Z,44.72
2022-09-07T00:26:28.614Z,44.83
2022-09-07T00:29:02.065Z,41.40
2022-09-07T00:31:31.740Z,41.80
2022-09-07T00:34:01.302Z,41.60
2022-09-07T00:36:28.766Z,41.08
2022-09-07T00:39:02.549Z,39.67
2022-09-07T00:41:30.930Z,43.60
2022-09-07T00:44:38.528Z,37.70
2022-09-07T00:47:20.327Z,38.30
2022-09-07T00:49:52.899Z,36.15
2022-09-07T00:52:23.885Z,39.45
2022-09-07T00:55:01.879Z,32.92
2022-09-07T00:57:29.946Z,36.17
2022-09-07T00:59:58.942Z,33.40
2022-09-07T01:02:27.254Z,31.90
2022-09-07T01:05:10.731Z,31.15
2022-09-07T01:07:37.932Z,33.28
2022-09-07T01:10:07.707Z,32.92
2022-09-07T01:12:34.664Z,32.47
2022-09-07T01:15:02.071Z,31.77
2022-09-07T01:18:03.440Z,27.17
2022-09-07T01:21:01.390Z,31.17
2022-09-07T01:23:55.652Z,27.60
2022-09-07T01:27:00.415Z,26.23
2022-09-07T01:29:46.827Z,26.73
2022-09-07T01:32:35.670Z,28.02
2022-09-07T01:35:10.443Z,29.05
2022-09-07T01:37:57.274Z,27.25
2022-09-07T01:40:58.840Z,28.08
2022-09-07T01:44:00.564Z,28.35
2022-09-07T01:46:39.894Z,28.63
2022-09-07T01:49:20.838Z,28.80
2022-09-07T01:52:03.882Z,24.80
2022-09-07T01:54:40.577Z,27.45
2022-09-07T01:57:21.326Z,28.20
2022-09-07T02:00:08.459Z,24.60
2022-09-07T02:02:59.128Z,27.15
2022-09-07T02:05:34.647Z,25.15
2022-09-07T02:08:17.560Z,24.05
2022-09-07T02:11:08.647Z,27.85
2022-09-07T02:13:48.243Z,28.05
2022-09-07T02:16:32.192Z,25.35
2022-09-07T02:19:14.468Z,25.08
2022-09-07T02:21:48.621Z,25.97
2022-09-07T02:24:24.301Z,29.02
2022-09-07T02:26:54.462Z,22.65
2022-09-07T02:29:22.225Z,25.15
2022-09-07T02:31:50.969Z,28.77
2022-09-07T02:34:18.549Z,27.95
2022-09-07T02:36:50.961Z,27.80
2022-09-07T02:39:18.468Z,26.38
2022-09-07T02:41:46.557Z,27.35
2022-09-07T02:44:25.987Z,23.52
2022-09-07T02:47:38.474Z,25.50
2022-09-07T02:50:44.887Z,23.70
2022-09-07T02:54:08.591Z,22.25
2022-09-07T02:57:04.819Z,21.80
2022-09-07T03:00:20.795Z,22.85
2022-09-07T03:03:00.890Z,26.88
2022-09-07T03:06:00.148Z,26.73
2022-09-07T03:08:39.833Z,23.27
2022-09-07T03:11:08.509Z,26.35
2022-09-07T03:13:35.648Z,27.05
2022-09-07T03:16:06.132Z,27.80
2022-09-07T03:18:33.704Z,25.38
2022-09-07T03:21:00.953Z,23.67
2022-09-07T03:23:28.170Z,25.65
2022-09-07T03:25:55.137Z,25.13
2022-09-07T03:28:22.081Z,25.10
2022-09-07T03:30:49.080Z,29.10
2022-09-07T03:33:16.693Z,26.42
2022-09-07T03:36:00.246Z,24.20
2022-09-07T03:38:27.462Z,29.08
2022-09-07T03:41:02.384Z,27.27
2022-09-07T03:43:31.116Z,23.35
2022-09-07T03:46:05.192Z,25.55
2022-09-07T03:48:34.929Z,24.88
2022-09-07T03:51:08.884Z,25.38
2022-09-07T03:53:39.362Z,24.33
2022-09-07T03:56:11.208Z,25.10
2022-09-07T03:58:39.382Z,22.38
2022-09-07T04:01:14.283Z,28.33
2022-09-07T04:03:42.319Z,28.60
2022-09-07T04:06:09.919Z,20.88
2022-09-07T04:08:40.190Z,21.38
2022-09-07T04:11:10.727Z,20.83
2022-09-07T04:13:37.958Z,23.85
2022-09-07T04:16:17.986Z,25.27
2022-09-07T04:18:45.687Z,25.83
2022-09-07T04:21:17.804Z,22.08
2022-09-07T04:23:45.719Z,22.60
2022-09-07T04:26:20.034Z,25.08
2022-09-07T04:28:48.595Z,23.45
2022-09-07T04:31:19.040Z,26.55
2022-09-07T04:33:48.791Z,27.05
2022-09-07T04:36:18.879Z,26.30
2022-09-07T04:38:46.993Z,22.00
2022-09-07T04:41:17.761Z,22.50
2022-09-07T04:43:46.635Z,25.15
2022-09-07T04:46:24.306Z,29.15
2022-09-07T04:48:58.378Z,24.42
2022-09-07T04:51:29.320Z,25.73
2022-09-07T04:54:03.946Z,24.73
2022-09-07T04:56:32.353Z,24.15
2022-09-07T04:59:05.923Z,24.77
2022-09-07T05:01:34.204Z,21.50
2022-09-07T05:04:02.783Z,23.15
2022-09-07T05:06:30.343Z,20.55
2022-09-07T05:09:00.288Z,25.48
2022-09-07T05:11:29.373Z,23.27
2022-09-07T05:14:02.935Z,22.50
2022-09-07T05:16:34.950Z,30.92
2022-09-07T05:19:05.315Z,21.15
2022-09-07T05:21:34.594Z,31.00
2022-09-07T05:24:02.723Z,18.00
2022-09-07T05:26:36.462Z,22.48
2022-09-07T05:31:54.008Z,22.55
2022-09-07T05:36:56.156Z,20.30
2022-09-07T05:39:24.654Z,20.50
2022-09-07T05:41:51.621Z,20.05
2022-09-07T05:47:06.367Z,24.10
2022-09-07T05:49:34.282Z,19.73
2022-09-07T05:52:02.733Z,17.95
2022-09-07T05:54:29.864Z,23.23
2022-09-07T05:56:57.083Z,21.33
2022-09-07T05:59:27.091Z,21.30
2022-09-07T06:01:54.241Z,17.20
2022-09-07T06:04:21.623Z,16.55
2022-09-07T06:07:17.769Z,19.13
2022-09-07T06:12:25.200Z,15.70
2022-09-07T06:14:52.196Z,23.02
2022-09-07T06:17:19.706Z,19.00
2022-09-07T06:19:46.823Z,22.27
2022-09-07T06:22:13.936Z,17.63
2022-09-07T06:24:41.340Z,18.30
2022-09-07T06:27:11.430Z,16.27
2022-09-07T06:29:38.508Z,20.58
2022-09-07T06:34:53.985Z,17.77
2022-09-07T06:37:21.593Z,20.20
2022-09-07T06:39:49.540Z,17.50
2022-09-07T06:42:16.751Z,16.85
2022-09-07T06:44:44.637Z,17.58
2022-09-07T06:47:12.197Z,17.90
2022-09-07T06:49:39.182Z,16.77
2022-09-07T06:52:06.581Z,18.45
2022-09-07T06:57:20.804Z,18.15
2022-09-07T06:59:48.097Z,17.08
2022-09-07T07:02:15.480Z,17.35
2022-09-07T07:04:45.230Z,16.08
2022-09-07T07:07:13.971Z,18.83
2022-09-07T07:09:43.512Z,14.93
2022-09-07T07:12:11.397Z,16.02
2022-09-07T07:14:43.950Z,14.98
2022-09-07T07:17:11.930Z,18.58
2022-09-07T07:19:38.873Z,19.77
2022-09-07T07:22:18.615Z,16.70
2022-09-07T07:24:52.934Z,13.68
2022-09-07T07:27:24.640Z,18.52
2022-09-07T07:29:54.538Z,20.40
2022-09-07T07:32:21.927Z,19.73
2022-09-07T07:34:48.841Z,17.15
2022-09-07T07:37:17.105Z,17.02
2022-09-07T07:42:32.629Z,13.50
2022-09-07T07:47:53.625Z,22.33
2022-09-07T07:50:36.254Z,18.48
2022-09-07T07:55:52.361Z,15.25
2022-09-07T07:58:20.516Z,18.50
2022-09-07T08:00:54.874Z,15.60
2022-09-07T08:03:25.208Z,17.08
2022-09-07T08:05:52.924Z,16.80
2022-09-07T08:08:20.838Z,14.38
2022-09-07T08:10:48.085Z,21.63
2022-09-07T08:13:19.429Z,18.63
2022-09-07T08:15:46.821Z,13.32
2022-09-07T08:18:16.865Z,16.02
2022-09-07T08:20:44.686Z,15.43
2022-09-07T08:23:11.932Z,15.32
2022-09-07T08:25:39.159Z,15.40
2022-09-07T08:28:06.430Z,18.67
2022-09-07T08:30:33.483Z,16.95
2022-09-07T08:33:01.651Z,13.30
2022-09-07T08:35:28.658Z,15.98
2022-09-07T08:37:55.624Z,12.93
2022-09-07T08:40:22.851Z,12.27
2022-09-07T08:43:20.934Z,13.63
2022-09-07T08:45:54.249Z,13.20
2022-09-07T08:48:34.489Z,15.68
2022-09-07T08:51:27.539Z,15.95
2022-09-07T08:53:55.717Z,11.23
2022-09-07T08:56:33.768Z,11.65
2022-09-07T08:59:14.246Z,13.20
2022-09-07T09:02:26.278Z,16.08
2022-09-07T09:04:31.549Z,14.68
2022-09-07T09:07:20.742Z,26.08
2022-09-07T09:10:12.912Z,13.10
2022-09-07T09:13:19.417Z,17.35
2022-09-07T09:15:59.670Z,11.65
2022-09-07T09:18:51.585Z,12.15
2022-09-07T09:21:19.904Z,13.73
2022-09-07T09:23:52.633Z,16.13
2022-09-07T09:26:29.676Z,11.65
2022-09-07T09:28:57.579Z,13.45
2022-09-07T09:31:34.253Z,11.50
2022-09-07T09:34:10.061Z,12.90
2022-09-07T09:36:46.449Z,13.63
2022-09-07T09:39:37.026Z,12.30
2022-09-07T09:42:22.502Z,10.20
2022-09-07T09:44:51.010Z,10.95
2022-09-07T09:47:33.517Z,9.23
2022-09-07T09:53:55.840Z,9.52
2022-09-07T09:56:36.559Z,12.98
2022-09-07T10:05:37.413Z,12.70
2022-09-07T10:08:30.098Z,10.23
2022-09-07T10:13:55.725Z,12.68
2022-09-07T10:16:42.855Z,10.13
2022-09-07T10:19:38.689Z,12.25
2022-09-07T10:22:39.075Z,14.35
2022-09-07T10:25:40.975Z,15.20
2022-09-07T10:28:12.661Z,10.37
2022-09-07T10:31:18.199Z,10.90
2022-09-07T10:34:33.553Z,9.98
2022-09-07T10:37:11.549Z,13.55
2022-09-07T10:40:00.626Z,12.43
2022-09-07T10:43:20.558Z,13.90
2022-09-07T10:46:07.513Z,8.55
2022-09-07T10:49:02.142Z,10.38
2022-09-07T10:52:09.018Z,13.25
2022-09-07T10:54:47.607Z,9.32
2022-09-07T10:57:49.211Z,9.18
2022-09-07T11:00:22.695Z,12.10
2022-09-07T11:06:29.851Z,12.25
2022-09-07T11:09:27.691Z,9.10
2022-09-07T11:12:16.545Z,8.40
2022-09-07T11:15:06.867Z,8.57
2022-09-07T11:17:52.623Z,12.02
2022-09-07T11:20:45.345Z,7.25
2022-09-07T11:26:29.809Z,8.73
2022-09-07T11:29:35.641Z,8.93
2022-09-07T11:32:19.338Z,11.88
2022-09-07T11:34:58.655Z,7.57
2022-09-07T11:37:59.505Z,10.02
2022-09-07T11:41:15.059Z,8.10
2022-09-07T11:44:25.886Z,10.10
2022-09-07T11:47:02.200Z,15.13
2022-09-07T11:49:31.145Z,11.43
2022-09-07T11:52:18.848Z,7.72
2022-09-07T11:55:10.165Z,10.30
2022-09-07T11:58:07.749Z,11.35
2022-09-07T12:01:01.784Z,8.63
2022-09-07T12:04:15.453Z,8.15
2022-09-07T12:07:46.501Z,8.27
2022-09-07T12:10:18.880Z,8.90
2022-09-07T12:13:18.172Z,10.10
2022-09-07T12:16:25.487Z,10.85
2022-09-07T12:19:17.766Z,11.65
2022-09-07T12:21:59.331Z,13.00
2022-09-07T12:24:35.660Z,13.35
2022-09-07T12:27:20.758Z,8.00
2022-09-07T12:30:03.926Z,9.13
2022-09-07T12:32:55.259Z,12.55
2022-09-07T12:35:40.363Z,9.45
2022-09-07T12:38:36.494Z,11.30
2022-09-07T12:41:25.294Z,11.25
2022-09-07T12:44:07.042Z,9.98
2022-09-07T12:46:34.722Z,10.68
2022-09-07T12:49:29.543Z,10.30
2022-09-07T12:52:34.436Z,11.65
2022-09-07T12:59:22.611Z,14.23
2022-09-07T13:02:44.496Z,14.60
2022-09-07T13:05:44.912Z,11.50
2022-09-07T13:08:44.033Z,12.43
2022-09-07T13:11:20.328Z,17.83
2022-09-07T13:14:20.412Z,15.32
2022-09-07T13:19:46.289Z,13.68
2022-09-07T13:22:35.140Z,16.05
2022-09-07T13:25:27.751Z,19.40
2022-09-07T13:31:05.014Z,14.55
2022-09-07T13:33:35.056Z,18.35
2022-09-07T13:36:08.250Z,20.23
2022-09-07T13:38:40.141Z,15.73
2022-09-07T13:41:15.288Z,9.30
2022-09-07T13:43:49.423Z,13.80
2022-09-07T13:46:41.088Z,13.15
2022-09-07T13:50:01.110Z,10.50
2022-09-07T13:53:12.278Z,7.38
2022-09-07T13:56:02.301Z,15.13
2022-09-07T13:58:40.960Z,14.82
2022-09-07T14:01:29.391Z,13.63
2022-09-07T14:04:09.480Z,6.57
2022-09-07T14:06:39.407Z,13.68
2022-09-07T14:09:14.680Z,10.50
2022-09-07T14:11:46.862Z,13.88
2022-09-07T14:14:24.931Z,10.93
2022-09-07T14:17:04.547Z,14.52
2022-09-07T14:19:51.872Z,11.68
2022-09-07T14:22:24.740Z,13.90
2022-09-07T14:24:56.650Z,11.98
2022-09-07T14:30:33.200Z,11.93
2022-09-07T14:33:20.173Z,11.38
2022-09-07T14:35:49.465Z,15.75
2022-09-07T14:41:20.875Z,13.73
2022-09-07T14:43:57.448Z,13.57
2022-09-07T14:46:30.804Z,14.27
2022-09-07T14:49:07.956Z,15.73
2022-09-07T14:51:36.822Z,13.07
2022-09-07T14:54:07.518Z,9.93
2022-09-07T14:56:39.344Z,12.50
2022-09-07T14:59:38.191Z,13.52
2022-09-07T15:02:29.778Z,14.85
2022-09-07T15:05:28.627Z,10.45
2022-09-07T15:08:02.742Z,9.75
2022-09-07T15:10:41.352Z,7.32
2022-09-07T15:13:44.248Z,11.85
2022-09-07T15:16:25.120Z,13.02
2022-09-07T15:19:24.339Z,7.97
2022-09-07T15:21:51.546Z,8.23
2022-09-07T15:24:18.600Z,12.38
2022-09-07T15:27:05.228Z,6.93
2022-09-07T15:29:32.976Z,11.27
2022-09-07T15:32:04.309Z,10.60
2022-09-07T15:37:00.830Z,8.57
2022-09-07T15:39:34.408Z,10.52
2022-09-07T15:44:53.440Z,7.88
2022-09-07T15:50:11.331Z,6.38
2022-09-07T15:52:38.827Z,8.20
2022-09-07T15:55:08.956Z,9.23
2022-09-07T15:58:02.237Z,9.98
2022-09-07T16:00:26.192Z,11.60
2022-09-07T16:03:09.405Z,13.90
2022-09-07T16:05:43.964Z,11.93
2022-09-07T16:08:32.878Z,9.70
2022-09-07T16:11:17.901Z,8.98
2022-09-07T16:13:46.956Z,11.48
2022-09-07T16:16:15.683Z,12.05
2022-09-07T16:18:46.697Z,12.63
2022-09-07T16:21:16.238Z,10.63
2022-09-07T16:23:48.926Z,10.85
2022-09-07T16:26:19.459Z,11.57
2022-09-07T16:28:49.484Z,13.52
2022-09-07T16:31:23.562Z,19.52
2022-09-07T16:33:51.977Z,21.38
2022-09-07T16:36:20.270Z,19.55
2022-09-07T16:38:49.120Z,22.10
2022-09-07T16:41:20.576Z,17.23
2022-09-07T16:43:49.461Z,14.38
2022-09-07T16:46:21.103Z,15.57
2022-09-07T16:48:50.225Z,14.38
2022-09-07T16:51:21.506Z,13.15
2022-09-07T16:53:52.080Z,11.52
2022-09-07T16:56:25.069Z,15.65
2022-09-07T16:58:57.110Z,11.93
2022-09-07T17:01:29.023Z,11.75
2022-09-07T17:03:56.703Z,18.20
2022-09-07T17:06:26.986Z,13.52
2022-09-07T17:08:55.485Z,10.07
2022-09-07T17:11:26.618Z,10.98
2022-09-07T17:13:56.659Z,13.52
2022-09-07T17:16:28.357Z,10.88
2022-09-07T17:21:46.465Z,13.07
2022-09-07T17:24:13.934Z,13.20
2022-09-07T17:26:42.271Z,10.95
2022-09-07T17:29:12.812Z,15.45
2022-09-07T17:34:30.026Z,10.68
2022-09-07T17:36:57.646Z,13.23
2022-09-07T17:39:24.951Z,15.80
2022-09-07T17:41:52.767Z,13.55
2022-09-07T17:44:21.592Z,13.73
2022-09-07T17:46:48.744Z,15.82
2022-09-07T17:49:16.749Z,16.45
2022-09-07T17:51:44.728Z,14.38
2022-09-07T17:54:37.171Z,11.73
2022-09-07T17:57:05.263Z,14.20
2022-09-07T18:02:21.421Z,13.70
2022-09-07T18:04:49.449Z,13.23
2022-09-07T18:07:16.710Z,15.60
2022-09-07T18:09:43.888Z,15.32
2022-09-07T18:12:11.024Z,13.40
2022-09-07T18:14:38.244Z,16.65
2022-09-07T18:17:05.841Z,17.50
2022-09-07T18:19:32.984Z,15.32
2022-09-07T18:22:02.723Z,16.23
2022-09-07T18:24:30.425Z,18.60
2022-09-07T18:26:58.137Z,18.45
2022-09-07T18:29:29.866Z,16.85
2022-09-07T18:31:59.822Z,13.30
2022-09-07T18:34:31.963Z,21.92
2022-09-07T18:37:00.823Z,18.52
2022-09-07T18:39:28.685Z,21.00
2022-09-07T18:41:55.936Z,16.45
2022-09-07T18:47:27.596Z,15.70
2022-09-07T18:49:56.282Z,17.90
2022-09-07T18:55:11.658Z,20.23
2022-09-07T18:57:38.987Z,17.85
2022-09-07T19:00:12.576Z,18.20
2022-09-07T19:02:39.757Z,21.40
2022-09-07T19:07:54.723Z,17.13
2022-09-07T19:10:23.135Z,17.92
2022-09-07T19:12:50.192Z,21.20
2022-09-07T19:15:17.597Z,22.92
2022-09-07T19:17:44.709Z,22.17
2022-09-07T19:20:11.927Z,17.83
2022-09-07T19:22:39.335Z,17.83
2022-09-07T19:25:06.825Z,22.38
2022-09-07T19:27:36.773Z,23.15
2022-09-07T19:30:04.825Z,22.67
2022-09-07T19:32:32.102Z,20.30
2022-09-07T19:34:59.078Z,19.10
2022-09-07T19:37:31.913Z,24.05
2022-09-07T19:40:00.249Z,24.48
2022-09-07T19:42:29.829Z,22.42
2022-09-07T19:44:57.009Z,23.25
2022-09-07T19:47:24.365Z,21.75
2022-09-07T19:49:54.059Z,23.02
2022-09-07T19:52:22.522Z,22.65
2022-09-07T19:54:49.458Z,24.00
2022-09-07T19:57:16.445Z,21.40
2022-09-07T19:59:45.597Z,20.98
2022-09-07T20:02:13.636Z,26.60
2022-09-07T20:04:46.629Z,21.10
2022-09-07T20:07:13.625Z,21.42
2022-09-07T20:09:40.948Z,28.42
2022-09-07T20:12:08.515Z,27.80
2022-09-07T20:14:35.507Z,24.13
2022-09-07T20:17:07.630Z,25.90
2022-09-07T20:19:34.938Z,25.98
2022-09-07T20:22:01.982Z,24.05
2022-09-07T20:24:29.119Z,28.58
2022-09-07T20:27:02.733Z,22.60
2022-09-07T20:29:31.572Z,24.55
2022-09-07T20:32:02.869Z,25.75
2022-09-07T20:34:32.398Z,30.90
2022-09-07T20:36:59.649Z,29.70
2022-09-07T20:39:26.823Z,25.05
2022-09-07T20:41:54.070Z,25.48
2022-09-07T20:44:21.068Z,23.00
2022-09-07T20:46:51.844Z,26.23
2022-09-07T20:49:19.190Z,25.17
2022-09-07T20:51:46.502Z,29.98
2022-09-07T20:54:13.605Z,27.27
2022-09-07T20:56:45.893Z,24.15
2022-09-07T21:01:42.298Z,23.30
2022-09-07T21:04:09.383Z,28.23
2022-09-07T21:06:43.637Z,22.90
2022-09-07T21:09:11.343Z,22.17
2022-09-07T21:11:39.841Z,22.85
2022-09-07T21:14:11.926Z,22.33
2022-09-07T21:16:42.023Z,20.25
2022-09-07T21:19:11.039Z,21.73
2022-09-07T21:21:42.179Z,24.02
2022-09-07T21:24:35.709Z,21.33
2022-09-07T21:27:03.136Z,23.05
2022-09-07T21:29:33.860Z,21.50
2022-09-07T21:32:00.816Z,18.75
2022-09-07T21:34:28.092Z,19.15
2022-09-07T21:36:55.957Z,24.48
2022-09-07T21:39:25.603Z,20.00
2022-09-07T21:41:52.505Z,22.60
2022-09-07T21:44:20.481Z,21.50
2022-09-07T21:46:47.525Z,21.52
2022-09-07T21:49:14.930Z,23.30
2022-09-07T21:51:42.348Z,25.58
2022-09-07T21:54:09.560Z,25.50
2022-09-07T21:56:36.641Z,26.65
2022-09-07T21:59:04.598Z,21.40
2022-09-07T22:01:32.024Z,25.13
2022-09-07T22:04:07.022Z,23.63
2022-09-07T22:06:37.562Z,24.13
2022-09-07T22:09:08.109Z,21.50
2022-09-07T22:11:35.237Z,24.35
2022-09-07T22:14:04.790Z,23.23
2022-09-07T22:16:34.796Z,21.95
2022-09-07T22:19:02.041Z,22.67
2022-09-07T22:21:32.188Z,19.92
2022-09-07T22:26:40.141Z,20.83
2022-09-07T22:29:11.043Z,24.17
2022-09-07T22:31:40.099Z,20.58
2022-09-07T22:34:09.403Z,20.38
2022-09-07T22:36:44.546Z,21.77
2022-09-07T22:41:43.821Z,21.90
2022-09-07T22:44:15.084Z,21.15
2022-09-07T22:46:46.922Z,22.48
2022-09-07T22:49:16.204Z,21.15
2022-09-07T22:51:46.308Z,21.98
2022-09-07T22:54:16.182Z,21.17
2022-09-07T22:56:43.191Z,24.08
2022-09-07T22:59:12.929Z,23.27
2022-09-07T23:01:42.018Z,22.90
2022-09-07T23:04:11.052Z,23.80
2022-09-07T23:06:43.804Z,23.83
2022-09-07T23:11:42.278Z,20.63
2022-09-07T23:14:17.448Z,24.27
2022-09-07T23:16:45.290Z,25.38
2022-09-07T23:19:13.840Z,23.48
2022-09-07T23:21:44.630Z,22.90
2022-09-07T23:24:15.567Z,20.77
2022-09-07T23:26:43.504Z,22.67
2022-09-07T23:29:15.989Z,26.02
2022-09-07T23:31:44.947Z,24.80
2022-09-07T23:34:12.444Z,24.10
2022-09-07T23:36:39.481Z,19.88
2022-09-07T23:39:06.853Z,23.27
2022-09-07T23:41:33.797Z,23.52
2022-09-07T23:44:01.576Z,25.40
2022-09-07T23:46:28.658Z,25.77
2022-09-07T23:48:55.803Z,22.88
2022-09-07T23:51:24.502Z,24.05
2022-09-07T23:53:55.579Z,23.40
2022-09-07T23:56:24.620Z,21.92
2022-09-07T23:58:51.730Z,23.30
